createdAt,value
2022-12-18T00:02:45.618Z,101890.22
2022-12-18T00:05:51.599Z,101895.31
2022-12-18T00:08:55.366Z,101900.41
2022-12-18T00:11:59.535Z,101909.50
2022-12-18T00:15:01.726Z,101920.72
2022-12-18T00:18:05.349Z,101930.69
2022-12-18T00:21:09.446Z,101940.47
2022-12-18T00:24:12.640Z,101949.81
2022-12-18T00:27:14.860Z,101956.47
2022-12-18T00:30:17.445Z,101969.75
2022-12-18T00:33:20.046Z,101971.00
2022-12-18T00:36:24.408Z,101967.69
2022-12-18T00:39:27.797Z,101971.44
2022-12-18T00:42:48.929Z,101970.69
2022-12-18T00:45:51.345Z,101974.19
2022-12-18T00:48:53.853Z,101977.41
2022-12-18T00:51:56.138Z,101977.25
2022-12-18T00:55:01.861Z,101975.38
2022-12-18T00:58:09.032Z,101987.00
2022-12-18T01:01:11.755Z,101988.44
2022-12-18T01:04:14.584Z,101989.47
2022-12-18T01:07:17.191Z,102007.50
2022-12-18T01:10:20.360Z,102001.53
2022-12-18T01:13:25.547Z,102006.50
2022-12-18T01:16:30.251Z,102005.75
2022-12-18T01:19:40.569Z,102001.31
2022-12-18T01:22:48.985Z,102008.16
2022-12-18T01:25:51.542Z,102017.63
2022-12-18T01:28:57.085Z,102018.78
2022-12-18T01:32:01.692Z,102013.37
2022-12-18T01:35:29.771Z,102017.63
2022-12-18T01:38:35.189Z,102015.59
2022-12-18T01:41:56.823Z,102022.63
2022-12-18T01:45:24.961Z,102023.06
2022-12-18T01:48:29.982Z,102033.19
2022-12-18T01:51:38.437Z,102036.66
2022-12-18T01:54:44.082Z,102039.31
2022-12-18T01:57:47.330Z,102036.28
2022-12-18T02:00:53.411Z,102048.22
2022-12-18T02:04:20.333Z,102041.53
2022-12-18T02:07:33.275Z,102048.50
2022-12-18T02:10:42.722Z,102051.41
2022-12-18T02:13:55.329Z,102051.28
2022-12-18T02:17:11.992Z,102068.44
2022-12-18T02:20:45.868Z,102071.06
2022-12-18T02:23:48.205Z,102074.37
2022-12-18T02:27:04.491Z,102075.09
2022-12-18T02:30:08.329Z,102076.78
2022-12-18T02:33:14.401Z,102082.00
2022-12-18T02:36:19.697Z,102081.94
2022-12-18T02:39:25.027Z,102085.00
2022-12-18T02:42:29.111Z,102104.09
2022-12-18T02:45:32.105Z,102093.19
2022-12-18T02:48:36.120Z,102091.37
2022-12-18T02:52:02.372Z,102094.13
2022-12-18T02:55:19.898Z,102109.09
2022-12-18T02:58:42.252Z,102113.31
2022-12-18T03:02:10.366Z,102112.91
2022-12-18T03:05:13.125Z,102121.37
2022-12-18T03:08:15.675Z,102123.59
2022-12-18T03:11:39.354Z,102126.62
2022-12-18T03:14:42.795Z,102130.69
2022-12-18T03:18:05.909Z,102123.19
2022-12-18T03:21:10.355Z,102132.88
2022-12-18T03:24:14.617Z,102132.88
2022-12-18T03:27:19.533Z,102139.66
2022-12-18T03:30:23.502Z,102151.87
2022-12-18T03:33:51.787Z,102152.28
2022-12-18T03:36:54.581Z,102157.84
2022-12-18T03:39:58.899Z,102159.97
2022-12-18T03:43:09.917Z,102164.22
2022-12-18T03:46:17.203Z,102161.50
2022-12-18T03:49:26.179Z,102167.72
2022-12-18T03:52:29.507Z,102168.09
2022-12-18T03:55:35.287Z,102166.28
2022-12-18T03:58:39.771Z,102168.09
2022-12-18T04:01:50.375Z,102168.25
2022-12-18T04:04:54.679Z,102173.66
2022-12-18T04:07:57.667Z,102173.03
2022-12-18T04:11:00.802Z,102184.28
2022-12-18T04:14:07.068Z,102185.63
2022-12-18T04:17:10.186Z,102190.59
2022-12-18T04:20:12.752Z,102182.84
2022-12-18T04:23:17.542Z,102188.03
2022-12-18T04:26:20.055Z,102188.56
2022-12-18T04:29:23.073Z,102187.81
2022-12-18T04:32:25.353Z,102190.59
2022-12-18T04:35:28.157Z,102190.47
2022-12-18T04:38:30.903Z,102197.56
2022-12-18T04:41:34.327Z,102203.34
2022-12-18T04:44:37.557Z,102208.50
2022-12-18T04:47:40.152Z,102211.16
2022-12-18T04:50:42.502Z,102213.00
2022-12-18T04:53:44.986Z,102225.81
2022-12-18T04:56:47.389Z,102225.22
2022-12-18T04:59:49.905Z,102225.81
2022-12-18T05:02:52.172Z,102229.94
2022-12-18T05:05:55.053Z,102230.22
2022-12-18T05:08:57.551Z,102232.41
2022-12-18T05:12:00.091Z,102236.91
2022-12-18T05:15:02.374Z,102241.31
2022-12-18T05:18:05.248Z,102252.88
2022-12-18T05:21:07.518Z,102251.41
2022-12-18T05:24:10.074Z,102249.56
2022-12-18T05:27:12.422Z,102250.25
2022-12-18T05:30:15.526Z,102259.97
2022-12-18T05:33:18.315Z,102268.44
2022-12-18T05:36:21.074Z,102269.44
2022-12-18T05:39:23.534Z,102273.50
2022-12-18T05:42:26.203Z,102267.97
2022-12-18T05:45:28.438Z,102283.28
2022-12-18T05:48:30.973Z,102284.25
2022-12-18T05:51:33.305Z,102288.28
2022-12-18T05:54:36.014Z,102285.06
2022-12-18T05:57:38.238Z,102286.00
2022-12-18T06:00:41.783Z,102295.91
2022-12-18T06:03:45.184Z,102296.00
2022-12-18T06:06:47.898Z,102293.53
2022-12-18T06:09:50.986Z,102302.62
2022-12-18T06:12:53.259Z,102307.97
2022-12-18T06:15:55.798Z,102305.00
2022-12-18T06:18:58.885Z,102304.03
2022-12-18T06:22:02.402Z,102307.09
2022-12-18T06:25:05.143Z,102309.56
2022-12-18T06:28:07.718Z,102314.03
2022-12-18T06:31:10.353Z,102317.72
2022-12-18T06:34:12.888Z,102329.09
2022-12-18T06:37:15.084Z,102329.81
2022-12-18T06:40:17.736Z,102334.63
2022-12-18T06:43:20.142Z,102342.84
2022-12-18T06:46:22.708Z,102341.97
2022-12-18T06:49:30.314Z,102348.91
2022-12-18T06:52:33.574Z,102352.66
2022-12-18T06:55:35.923Z,102353.81
2022-12-18T06:58:41.699Z,102362.91
2022-12-18T07:01:44.319Z,102373.06
2022-12-18T07:04:46.990Z,102387.78
2022-12-18T07:07:52.099Z,102388.38
2022-12-18T07:10:56.457Z,102384.88
2022-12-18T07:13:58.776Z,102387.59
2022-12-18T07:17:01.438Z,102397.69
2022-12-18T07:20:04.198Z,102400.38
2022-12-18T07:23:08.865Z,102403.09
2022-12-18T07:26:12.095Z,102408.72
2022-12-18T07:29:14.877Z,102410.03
2022-12-18T07:32:17.313Z,102419.84
2022-12-18T07:35:24.796Z,102418.09
2022-12-18T07:38:27.542Z,102425.00
2022-12-18T07:41:30.985Z,102436.81
2022-12-18T07:44:35.482Z,102433.66
2022-12-18T07:47:38.149Z,102436.47
2022-12-18T07:50:40.774Z,102441.16
2022-12-18T07:53:44.223Z,102454.81
2022-12-18T07:56:46.451Z,102448.84
2022-12-18T07:59:49.069Z,102453.47
2022-12-18T08:02:51.354Z,102468.28
2022-12-18T08:05:53.878Z,102472.19
2022-12-18T08:08:56.924Z,102470.31
2022-12-18T08:11:59.460Z,102465.75
2022-12-18T08:15:01.701Z,102480.00
2022-12-18T08:18:04.857Z,102483.09
2022-12-18T08:21:17.807Z,102489.41
2022-12-18T08:24:20.334Z,102485.34
2022-12-18T08:27:30.328Z,102484.69
2022-12-18T08:30:33.275Z,102492.09
2022-12-18T08:33:36.979Z,102494.63
2022-12-18T08:36:39.660Z,102498.63
2022-12-18T08:39:42.013Z,102500.09
2022-12-18T08:43:03.273Z,102498.84
2022-12-18T08:46:05.482Z,102492.53
2022-12-18T08:49:09.008Z,102497.84
2022-12-18T08:52:12.099Z,102496.06
2022-12-18T08:55:14.657Z,102501.59
2022-12-18T08:58:16.939Z,102505.03
2022-12-18T09:01:19.841Z,102513.41
2022-12-18T09:04:22.419Z,102514.28
2022-12-18T09:07:25.040Z,102530.31
2022-12-18T09:10:27.371Z,102529.25
2022-12-18T09:13:30.050Z,102534.87
2022-12-18T09:16:33.309Z,102531.78
2022-12-18T09:19:35.931Z,102539.78
2022-12-18T09:22:38.542Z,102536.34
2022-12-18T09:25:41.730Z,102530.31
2022-12-18T09:28:44.997Z,102530.91
2022-12-18T09:31:47.747Z,102534.25
2022-12-18T09:34:50.426Z,102532.63
2022-12-18T09:37:52.940Z,102528.53
2022-12-18T09:40:59.802Z,102527.00
2022-12-18T09:44:04.644Z,102522.03
2022-12-18T09:47:11.692Z,102516.09
2022-12-18T09:50:23.425Z,102522.97
2022-12-18T09:53:28.968Z,102529.19
2022-12-18T09:56:35.917Z,102521.00
2022-12-18T09:59:40.778Z,102515.41
2022-12-18T10:02:43.864Z,102520.16
2022-12-18T10:05:46.430Z,102520.31
2022-12-18T10:08:57.836Z,102515.44
2022-12-18T10:12:06.397Z,102510.59
2022-12-18T10:15:21.100Z,102518.19
2022-12-18T10:18:36.137Z,102523.22
2022-12-18T10:21:46.831Z,102519.78
2022-12-18T10:25:14.184Z,102519.22
2022-12-18T10:28:17.535Z,102521.97
2022-12-18T10:31:22.111Z,102518.16
2022-12-18T10:34:27.151Z,102514.69
2022-12-18T10:37:30.613Z,102501.25
2022-12-18T10:40:34.154Z,102510.09
2022-12-18T10:43:37.873Z,102503.84
2022-12-18T10:46:40.277Z,102505.84
2022-12-18T10:49:51.710Z,102518.34
2022-12-18T10:52:58.711Z,102509.78
2022-12-18T10:56:02.366Z,102504.41
2022-12-18T10:59:06.011Z,102505.44
2022-12-18T11:02:26.145Z,102496.16
2022-12-18T11:05:32.384Z,102506.75
2022-12-18T11:08:35.424Z,102500.09
2022-12-18T11:11:38.253Z,102495.06
2022-12-18T11:14:47.609Z,102499.47
2022-12-18T11:17:51.423Z,102487.91
2022-12-18T11:20:58.770Z,102488.00
2022-12-18T11:24:01.306Z,102493.00
2022-12-18T11:27:05.606Z,102494.03
2022-12-18T11:30:21.214Z,102492.41
2022-12-18T11:33:26.732Z,102491.47
2022-12-18T11:36:32.322Z,102495.19
2022-12-18T11:39:47.354Z,102488.41
2022-12-18T11:42:54.862Z,102482.47
2022-12-18T11:46:02.832Z,102479.31
2022-12-18T11:49:05.097Z,102481.16
2022-12-18T11:52:14.904Z,102488.75
2022-12-18T11:55:22.392Z,102486.09
2022-12-18T11:58:38.152Z,102466.00
2022-12-18T12:01:56.712Z,102475.50
2022-12-18T12:05:18.566Z,102473.91
2022-12-18T12:08:24.140Z,102468.91
2022-12-18T12:11:45.120Z,102462.06
2022-12-18T12:15:02.726Z,102462.72
2022-12-18T12:18:15.206Z,102461.63
2022-12-18T12:21:20.581Z,102464.13
2022-12-18T12:24:35.246Z,102463.28
2022-12-18T12:27:37.544Z,102463.34
2022-12-18T12:30:53.490Z,102464.66
2022-12-18T12:34:06.491Z,102461.94
2022-12-18T12:37:12.870Z,102473.09
2022-12-18T12:40:49.228Z,102465.31
2022-12-18T12:43:50.948Z,102463.59
2022-12-18T12:46:56.126Z,102473.16
2022-12-18T12:50:00.845Z,102479.09
2022-12-18T12:53:07.456Z,102485.03
2022-12-18T12:56:12.523Z,102487.00
2022-12-18T12:59:31.853Z,102499.19
2022-12-18T13:02:38.385Z,102499.19
2022-12-18T13:05:45.060Z,102494.50
2022-12-18T13:08:54.456Z,102496.97
2022-12-18T13:12:21.214Z,102505.56
2022-12-18T13:15:24.182Z,102505.28
2022-12-18T13:18:26.707Z,102498.78
2022-12-18T13:21:31.798Z,102508.44
2022-12-18T13:24:34.511Z,102504.19
2022-12-18T13:27:46.598Z,102503.12
2022-12-18T13:30:57.418Z,102505.84
2022-12-18T13:34:28.322Z,102507.81
2022-12-18T13:37:34.520Z,102511.06
2022-12-18T13:40:39.910Z,102516.78
2022-12-18T13:43:52.719Z,102522.25
2022-12-18T13:46:57.937Z,102518.31
2022-12-18T13:50:01.509Z,102519.69
2022-12-18T13:53:05.495Z,102517.66
2022-12-18T13:56:08.345Z,102528.31
2022-12-18T13:59:14.163Z,102533.94
2022-12-18T14:02:17.773Z,102531.19
2022-12-18T14:05:24.173Z,102532.22
2022-12-18T14:08:28.523Z,102528.31
2022-12-18T14:11:31.804Z,102534.41
2022-12-18T14:14:34.439Z,102534.16
2022-12-18T14:17:37.275Z,102538.72
2022-12-18T14:20:44.462Z,102540.34
2022-12-18T14:23:49.125Z,102544.97
2022-12-18T14:26:51.650Z,102534.13
2022-12-18T14:29:54.247Z,102534.13
2022-12-18T14:33:07.222Z,102539.78
2022-12-18T14:36:16.449Z,102542.69
2022-12-18T14:39:19.083Z,102542.09
2022-12-18T14:42:21.789Z,102550.06
2022-12-18T14:45:44.404Z,102553.00
2022-12-18T14:48:48.579Z,102562.72
2022-12-18T14:51:52.923Z,102568.84
2022-12-18T14:54:55.612Z,102571.63
2022-12-18T14:57:58.363Z,102586.22
2022-12-18T15:01:01.244Z,102579.88
2022-12-18T15:04:04.961Z,102584.91
2022-12-18T15:07:29.145Z,102587.03
2022-12-18T15:10:32.885Z,102585.87
2022-12-18T15:13:35.337Z,102597.53
2022-12-18T15:16:41.200Z,102597.22
2022-12-18T15:19:48.010Z,102600.13
2022-12-18T15:22:50.362Z,102603.31
2022-12-18T15:26:00.725Z,102604.28
2022-12-18T15:29:04.330Z,102614.16
2022-12-18T15:32:18.302Z,102609.59
2022-12-18T15:35:24.803Z,102616.09
2022-12-18T15:38:27.977Z,102624.91
2022-12-18T15:41:32.006Z,102619.16
2022-12-18T15:44:35.890Z,102629.78
2022-12-18T15:47:38.210Z,102636.72
2022-12-18T15:50:40.750Z,102640.34
2022-12-18T15:53:44.224Z,102645.44
2022-12-18T15:57:05.787Z,102660.31
2022-12-18T16:00:12.707Z,102653.94
2022-12-18T16:03:15.450Z,102652.84
2022-12-18T16:06:18.187Z,102666.87
2022-12-18T16:09:26.035Z,102673.75
2022-12-18T16:12:28.758Z,102664.63
2022-12-18T16:15:31.315Z,102668.13
2022-12-18T16:18:33.617Z,102666.69
2022-12-18T16:21:36.564Z,102670.31
2022-12-18T16:24:38.971Z,102675.16
2022-12-18T16:27:41.539Z,102677.69
2022-12-18T16:30:45.823Z,102684.78
2022-12-18T16:33:48.364Z,102688.59
2022-12-18T16:36:51.159Z,102689.81
2022-12-18T16:39:53.703Z,102691.19
2022-12-18T16:42:55.985Z,102687.53
2022-12-18T16:45:59.965Z,102681.37
2022-12-18T16:49:02.217Z,102699.12
2022-12-18T16:52:05.557Z,102706.62
2022-12-18T16:55:08.031Z,102706.47
2022-12-18T16:58:11.070Z,102707.06
2022-12-18T17:01:13.574Z,102705.06
2022-12-18T17:04:17.092Z,102699.88
2022-12-18T17:07:19.415Z,102701.63
2022-12-18T17:10:22.243Z,102692.06
2022-12-18T17:13:26.666Z,102687.75
2022-12-18T17:16:29.124Z,102690.03
2022-12-18T17:19:31.586Z,102695.63
2022-12-18T17:22:34.187Z,102691.88
2022-12-18T17:25:39.494Z,102684.00
2022-12-18T17:28:42.420Z,102691.97
2022-12-18T17:31:44.874Z,102701.09
2022-12-18T17:34:47.449Z,102696.44
2022-12-18T17:37:49.657Z,102700.78
2022-12-18T17:40:52.307Z,102702.66
2022-12-18T17:43:55.623Z,102705.63
2022-12-18T17:46:58.095Z,102701.84
2022-12-18T17:50:00.538Z,102707.41
2022-12-18T17:53:03.938Z,102717.50
2022-12-18T17:56:06.394Z,102708.03
2022-12-18T17:59:10.752Z,102714.75
2022-12-18T18:02:13.265Z,102709.50
2022-12-18T18:05:16.549Z,102711.84
2022-12-18T18:08:20.184Z,102706.56
2022-12-18T18:11:42.017Z,102704.84
2022-12-18T18:14:44.556Z,102703.06
2022-12-18T18:17:47.144Z,102711.84
2022-12-18T18:20:49.623Z,102717.53
2022-12-18T18:23:52.422Z,102716.38
2022-12-18T18:26:55.479Z,102715.97
2022-12-18T18:29:58.362Z,102713.34
2022-12-18T18:33:00.715Z,102712.09
2022-12-18T18:36:03.211Z,102708.37
2022-12-18T18:39:05.474Z,102723.62
2022-12-18T18:42:08.182Z,102724.59
2022-12-18T18:45:10.632Z,102733.09
2022-12-18T18:48:14.086Z,102733.59
2022-12-18T18:51:21.058Z,102737.91
2022-12-18T18:54:24.678Z,102741.00
2022-12-18T18:57:30.264Z,102744.94
2022-12-18T19:00:33.465Z,102749.00
2022-12-18T19:03:37.734Z,102747.06
2022-12-18T19:06:42.693Z,102755.37
2022-12-18T19:09:51.873Z,102751.09
2022-12-18T19:13:12.854Z,102760.97
2022-12-18T19:16:15.259Z,102756.56
2022-12-18T19:19:21.092Z,102762.69
2022-12-18T19:22:23.889Z,102763.50
2022-12-18T19:25:40.411Z,102766.03
2022-12-18T19:28:44.316Z,102769.34
2022-12-18T19:31:47.276Z,102778.72
2022-12-18T19:34:49.590Z,102790.16
2022-12-18T19:37:55.378Z,102788.87
2022-12-18T19:40:59.850Z,102783.81
2022-12-18T19:44:07.837Z,102785.47
2022-12-18T19:47:10.631Z,102790.03
2022-12-18T19:50:13.508Z,102790.34
2022-12-18T19:53:15.909Z,102792.78
2022-12-18T19:56:19.802Z,102800.19
2022-12-18T19:59:22.216Z,102802.72
2022-12-18T20:02:25.190Z,102808.47
2022-12-18T20:05:28.600Z,102800.56
2022-12-18T20:08:30.965Z,102802.91
2022-12-18T20:11:36.371Z,102806.09
2022-12-18T20:14:44.389Z,102801.03
2022-12-18T20:17:47.624Z,102817.81
2022-12-18T20:20:50.125Z,102822.22
2022-12-18T20:23:55.775Z,102817.75
2022-12-18T20:26:58.088Z,102832.00
2022-12-18T20:30:00.749Z,102830.78
2022-12-18T20:33:02.968Z,102833.13
2022-12-18T20:36:07.758Z,102829.81
2022-12-18T20:39:12.189Z,102836.91
2022-12-18T20:42:15.969Z,102830.28
2022-12-18T20:45:18.674Z,102833.13
2022-12-18T20:48:26.542Z,102838.72
2022-12-18T20:51:30.589Z,102836.75
2022-12-18T20:54:33.455Z,102844.63
2022-12-18T20:57:35.794Z,102845.19
2022-12-18T21:00:40.874Z,102846.31
2022-12-18T21:03:43.954Z,102842.06
2022-12-18T21:06:51.641Z,102858.09
2022-12-18T21:09:55.466Z,102849.38
2022-12-18T21:13:01.792Z,102857.31
2022-12-18T21:16:07.031Z,102859.38
2022-12-18T21:19:18.979Z,102860.16
2022-12-18T21:22:21.546Z,102854.53
2022-12-18T21:25:24.079Z,102860.66
2022-12-18T21:28:26.416Z,102860.78
2022-12-18T21:31:30.420Z,102853.84
2022-12-18T21:34:33.051Z,102857.16
2022-12-18T21:37:35.657Z,102854.53
2022-12-18T21:40:38.944Z,102848.91
2022-12-18T21:44:00.184Z,102848.78
2022-12-18T21:47:13.766Z,102848.88
2022-12-18T21:50:25.010Z,102832.84
2022-12-18T21:53:27.205Z,102844.81
2022-12-18T21:56:46.110Z,102844.97
2022-12-18T21:59:49.588Z,102846.47
2022-12-18T22:03:17.231Z,102844.22
2022-12-18T22:06:14.844Z,102842.06
2022-12-18T22:09:18.888Z,102844.75
2022-12-18T22:12:35.667Z,102845.16
2022-12-18T22:15:46.093Z,102839.84
2022-12-18T22:18:48.742Z,102848.72
2022-12-18T22:21:51.630Z,102845.31
2022-12-18T22:24:54.237Z,102839.84
2022-12-18T22:28:15.217Z,102839.59
2022-12-18T22:31:18.748Z,102850.37
2022-12-18T22:34:23.234Z,102847.47
2022-12-18T22:37:26.037Z,102842.38
2022-12-18T22:40:28.335Z,102849.00
2022-12-18T22:43:30.907Z,102862.09
2022-12-18T22:46:35.395Z,102859.94
2022-12-18T22:49:38.752Z,102855.81
2022-12-18T22:52:41.043Z,102851.41
2022-12-18T22:55:43.612Z,102862.53
2022-12-18T22:58:47.782Z,102864.41
2022-12-18T23:01:51.500Z,102868.13
2022-12-18T23:05:01.031Z,102866.94
2022-12-18T23:08:03.536Z,102873.78
2022-12-18T23:11:06.035Z,102876.12
2022-12-18T23:14:08.561Z,102860.87
2022-12-18T23:17:10.960Z,102867.09
2022-12-18T23:20:13.870Z,102874.63
2022-12-18T23:23:16.335Z,102880.66
2022-12-18T23:26:20.483Z,102875.50
2022-12-18T23:29:22.710Z,102875.44
2022-12-18T23:32:25.246Z,102873.44
2022-12-18T23:35:27.634Z,102862.16
2022-12-18T23:38:31.141Z,102862.19
2022-12-18T23:41:33.400Z,102862.28
2022-12-18T23:44:35.950Z,102863.56
2022-12-18T23:47:38.193Z,102859.94
2022-12-18T23:50:40.752Z,102862.19
2022-12-18T23:53:43.692Z,102863.78
2022-12-18T23:56:46.233Z,102875.81
2022-12-18T23:59:48.717Z,102880.09
